createdAt,value
2017-11-10T00:00:13.274Z,7.50
2017-11-10T00:02:39.394Z,7.60
2017-11-10T00:05:05.513Z,7.60
2017-11-10T00:07:31.698Z,7.60
2017-11-10T00:09:57.783Z,7.60
2017-11-10T00:12:23.903Z,7.60
2017-11-10T00:14:50.014Z,7.60
2017-11-10T00:17:16.138Z,7.60
2017-11-10T00:19:42.381Z,7.60
2017-11-10T00:22:08.504Z,7.60
2017-11-10T00:24:34.620Z,7.60
2017-11-10T00:27:01.516Z,8.20
2017-11-10T00:29:27.600Z,8.20
2017-11-10T00:31:53.679Z,8.50
2017-11-10T00:34:19.781Z,8.60
2017-11-10T00:36:45.987Z,8.40
2017-11-10T00:39:12.105Z,8.00
2017-11-10T00:41:38.218Z,7.90
2017-11-10T00:44:04.370Z,7.80
2017-11-10T00:46:30.462Z,7.70
2017-11-10T00:48:56.569Z,7.70
2017-11-10T00:51:22.817Z,7.70
2017-11-10T00:53:48.932Z,7.70
2017-11-10T00:56:15.055Z,7.60
2017-11-10T00:58:41.142Z,7.60
2017-11-10T01:01:07.244Z,7.50
2017-11-10T01:03:33.369Z,7.50
2017-11-10T01:05:59.487Z,7.40
2017-11-10T01:08:26.330Z,7.50
2017-11-10T01:10:52.450Z,7.50
2017-11-10T01:13:18.554Z,7.50
2017-11-10T01:15:44.651Z,7.40
2017-11-10T01:18:11.818Z,7.50
2017-11-10T01:20:38.647Z,7.40
2017-11-10T01:23:04.821Z,7.40
2017-11-10T01:25:31.771Z,7.40
2017-11-10T01:27:58.609Z,7.40
2017-11-10T01:30:24.830Z,7.40
2017-11-10T01:32:50.946Z,7.30
2017-11-10T01:35:17.065Z,7.20
2017-11-10T01:37:43.191Z,7.20
2017-11-10T01:40:09.325Z,7.20
2017-11-10T01:42:36.182Z,7.10
2017-11-10T01:45:02.312Z,7.00
2017-11-10T01:47:29.232Z,6.90
2017-11-10T01:50:01.614Z,6.90
2017-11-10T01:52:27.693Z,6.90
2017-11-10T01:54:54.567Z,6.90
2017-11-10T01:57:20.682Z,6.80
2017-11-10T01:59:46.878Z,6.90
2017-11-10T02:02:13.166Z,6.80
2017-11-10T02:04:40.003Z,6.80
2017-11-10T02:07:06.275Z,6.80
2017-11-10T02:09:32.396Z,6.80
2017-11-10T02:11:59.234Z,6.80
2017-11-10T02:14:26.139Z,6.70
2017-11-10T02:16:52.283Z,6.70
2017-11-10T02:19:18.531Z,6.80
2017-11-10T02:21:44.643Z,6.80
2017-11-10T02:24:10.898Z,6.80
2017-11-10T02:26:37.226Z,6.70
2017-11-10T02:29:03.317Z,6.80
2017-11-10T02:31:29.441Z,6.80
2017-11-10T02:33:55.608Z,6.80
2017-11-10T02:36:21.723Z,6.70
2017-11-10T02:38:47.946Z,6.70
2017-11-10T02:41:14.065Z,6.80
2017-11-10T02:43:40.266Z,6.70
2017-11-10T02:46:06.449Z,6.70
2017-11-10T02:48:32.583Z,6.80
2017-11-10T02:50:58.747Z,6.90
2017-11-10T02:53:24.894Z,6.80
2017-11-10T02:55:50.990Z,6.90
2017-11-10T02:58:17.070Z,6.90
2017-11-10T03:00:43.196Z,6.90
2017-11-10T03:03:09.330Z,6.80
2017-11-10T03:05:35.419Z,6.80
2017-11-10T03:08:02.358Z,6.80
2017-11-10T03:10:28.490Z,6.80
2017-11-10T03:12:54.615Z,6.80
2017-11-10T03:15:20.774Z,6.80
2017-11-10T03:17:46.884Z,6.80
2017-11-10T03:20:12.969Z,6.90
2017-11-10T03:22:39.915Z,6.80
2017-11-10T03:25:06.745Z,6.80
2017-11-10T03:27:32.906Z,6.70
2017-11-10T03:29:59.030Z,6.80
2017-11-10T03:32:25.131Z,6.80
2017-11-10T03:34:51.227Z,6.80
2017-11-10T03:37:18.086Z,6.80
2017-11-10T03:39:45.010Z,6.80
2017-11-10T03:42:11.137Z,6.70
2017-11-10T03:44:37.273Z,6.90
2017-11-10T03:47:03.394Z,6.90
2017-11-10T03:49:29.501Z,6.90
2017-11-10T03:51:56.364Z,6.90
2017-11-10T03:54:23.279Z,6.90
2017-11-10T03:56:49.368Z,6.90
2017-11-10T03:59:15.489Z,6.80
2017-11-10T04:01:42.332Z,6.80
2017-11-10T04:04:09.191Z,6.90
2017-11-10T04:06:36.079Z,6.80
2017-11-10T04:09:02.208Z,6.80
2017-11-10T04:11:28.315Z,6.80
2017-11-10T04:13:54.469Z,6.90
2017-11-10T04:16:21.359Z,6.90
2017-11-10T04:18:47.472Z,6.90
2017-11-10T04:21:13.724Z,6.90
2017-11-10T04:23:39.852Z,6.90
2017-11-10T04:26:05.969Z,6.90
2017-11-10T04:28:32.999Z,6.90
2017-11-10T04:30:59.103Z,6.90
2017-11-10T04:33:25.201Z,7.10
2017-11-10T04:35:52.094Z,6.90
2017-11-10T04:38:18.203Z,6.90
2017-11-10T04:40:45.146Z,6.90
2017-11-10T04:43:11.242Z,6.80
2017-11-10T04:45:37.373Z,6.80
2017-11-10T04:48:03.530Z,6.80
2017-11-10T04:50:29.642Z,6.80
2017-11-10T04:52:56.886Z,6.80
2017-11-10T04:55:23.723Z,6.90
2017-11-10T04:57:50.632Z,6.90
2017-11-10T05:00:17.518Z,7.00
2017-11-10T05:02:43.662Z,6.90
2017-11-10T05:05:09.793Z,7.00
2017-11-10T05:07:35.911Z,7.00
2017-11-10T05:10:02.018Z,7.00
2017-11-10T05:12:28.141Z,7.10
2017-11-10T05:14:55.054Z,7.10
2017-11-10T05:17:21.210Z,7.00
2017-11-10T05:19:47.351Z,7.10
2017-11-10T05:22:13.468Z,7.10
2017-11-10T05:24:39.611Z,7.10
2017-11-10T05:27:05.767Z,7.10
2017-11-10T05:29:31.899Z,7.10
2017-11-10T05:31:58.129Z,7.20
2017-11-10T05:34:24.290Z,7.20
2017-11-10T05:36:50.404Z,7.20
2017-11-10T05:39:16.530Z,7.20
2017-11-10T05:41:42.691Z,7.20
2017-11-10T05:44:08.822Z,7.30
2017-11-10T05:46:34.950Z,7.30
2017-11-10T05:49:01.124Z,7.30
2017-11-10T05:51:27.983Z,7.40
2017-11-10T05:53:54.855Z,7.40
2017-11-10T05:56:21.015Z,7.40
2017-11-10T05:58:47.142Z,7.40
2017-11-10T06:01:13.238Z,7.40
2017-11-10T06:03:40.142Z,7.40
2017-11-10T06:06:06.251Z,7.40
2017-11-10T06:08:32.348Z,7.40
2017-11-10T06:10:58.494Z,7.30
2017-11-10T06:13:24.620Z,7.30
2017-11-10T06:15:50.744Z,7.30
2017-11-10T06:18:16.907Z,7.20
2017-11-10T06:20:43.030Z,7.30
2017-11-10T06:23:09.140Z,7.30
2017-11-10T06:25:35.286Z,7.40
2017-11-10T06:28:01.398Z,7.30
2017-11-10T06:30:28.269Z,7.30
2017-11-10T06:32:54.457Z,7.30
2017-11-10T06:35:20.550Z,7.30
2017-11-10T06:37:46.721Z,7.40
2017-11-10T06:40:12.964Z,7.30
2017-11-10T06:42:39.107Z,7.30
2017-11-10T06:45:05.198Z,7.30
2017-11-10T06:47:31.336Z,7.30
2017-11-10T06:49:57.538Z,7.30
2017-11-10T06:52:23.632Z,7.30
2017-11-10T06:54:49.771Z,7.30
2017-11-10T06:57:15.875Z,7.30
2017-11-10T06:59:42.766Z,7.30
2017-11-10T07:02:09.009Z,7.30
2017-11-10T07:04:35.128Z,7.30
2017-11-10T07:07:01.215Z,7.30
2017-11-10T07:09:27.356Z,7.30
2017-11-10T07:11:53.498Z,7.30
2017-11-10T07:14:19.597Z,7.30
2017-11-10T07:16:45.767Z,7.30
2017-11-10T07:19:11.900Z,7.30
2017-11-10T07:21:37.990Z,7.30
2017-11-10T07:24:04.115Z,7.30
2017-11-10T07:26:30.321Z,7.30
2017-11-10T07:28:56.411Z,7.30
2017-11-10T07:31:22.523Z,7.30
2017-11-10T07:33:49.370Z,7.30
2017-11-10T07:36:15.493Z,7.30
2017-11-10T07:38:41.619Z,7.30
2017-11-10T07:41:07.723Z,7.30
2017-11-10T07:43:33.811Z,7.30
2017-11-10T07:45:59.944Z,7.30
2017-11-10T07:48:26.017Z,7.30
2017-11-10T07:50:53.124Z,7.40
2017-11-10T07:53:19.293Z,7.40
2017-11-10T07:55:45.397Z,7.40
2017-11-10T07:58:11.491Z,7.40
2017-11-10T08:00:37.652Z,7.40
2017-11-10T08:03:03.754Z,7.40
2017-11-10T08:05:30.589Z,7.40
2017-11-10T08:07:56.710Z,7.40
2017-11-10T08:10:22.819Z,7.40
2017-11-10T08:12:48.926Z,7.40
2017-11-10T08:15:15.815Z,7.50
2017-11-10T08:17:41.943Z,7.50
2017-11-10T08:20:08.137Z,7.40
2017-11-10T08:22:34.337Z,7.40
2017-11-10T08:25:00.427Z,7.50
2017-11-10T08:27:27.267Z,8.00
2017-11-10T08:29:53.405Z,8.10
2017-11-10T08:32:19.596Z,8.60
2017-11-10T08:34:45.725Z,8.90
2017-11-10T08:37:11.874Z,9.30
2017-11-10T08:39:37.996Z,9.30
2017-11-10T08:42:04.207Z,9.10
2017-11-10T08:44:30.335Z,8.90
2017-11-10T08:46:56.482Z,9.00
2017-11-10T08:49:22.637Z,9.20
2017-11-10T08:51:48.828Z,9.60
2017-11-10T08:54:14.927Z,9.50
2017-11-10T08:56:41.045Z,9.20
2017-11-10T08:59:07.248Z,8.70
2017-11-10T09:01:33.348Z,9.20
2017-11-10T09:03:59.451Z,9.20
2017-11-10T09:06:25.577Z,9.10
2017-11-10T09:08:51.709Z,9.10
2017-11-10T09:11:17.876Z,9.40
2017-11-10T09:13:43.973Z,9.10
2017-11-10T09:16:10.054Z,9.10
2017-11-10T09:18:36.901Z,9.20
2017-11-10T09:21:03.057Z,9.20
2017-11-10T09:23:29.900Z,9.00
2017-11-10T09:25:56.771Z,9.10
2017-11-10T09:28:36.574Z,9.30
2017-11-10T09:34:19.102Z,8.90
2017-11-10T09:36:51.260Z,8.80
2017-11-10T09:39:21.058Z,9.00
2017-11-10T09:41:49.218Z,8.90
2017-11-10T09:47:32.559Z,8.80
2017-11-10T09:50:05.511Z,9.00
2017-11-10T09:52:49.639Z,8.90
2017-11-10T09:58:19.553Z,8.80
2017-11-10T10:00:51.514Z,8.90
2017-11-10T10:06:40.041Z,8.70
2017-11-10T10:09:09.066Z,8.80
2017-11-10T10:11:41.100Z,8.70
2017-11-10T10:14:09.043Z,8.70
2017-11-10T10:16:41.535Z,8.10
2017-11-10T10:22:11.694Z,7.80
2017-11-10T10:24:37.839Z,7.70
2017-11-10T10:27:03.939Z,7.70
2017-11-10T10:29:30.122Z,7.70
2017-11-10T10:31:56.613Z,7.80
2017-11-10T10:34:22.723Z,7.90
2017-11-10T10:36:48.867Z,7.90
2017-11-10T10:39:15.019Z,8.00
2017-11-10T10:41:41.155Z,8.10
2017-11-10T10:44:07.283Z,8.00
2017-11-10T10:46:33.387Z,8.10
2017-11-10T10:48:59.498Z,8.10
2017-11-10T10:51:26.392Z,8.20
2017-11-10T10:53:52.523Z,8.20
2017-11-10T10:56:18.641Z,8.20
2017-11-10T10:58:44.778Z,8.30
2017-11-10T11:01:11.664Z,8.40
2017-11-10T11:03:37.750Z,8.40
2017-11-10T11:06:03.881Z,8.40
2017-11-10T11:08:29.982Z,8.40
2017-11-10T11:10:56.076Z,8.50
2017-11-10T11:13:22.985Z,8.80
2017-11-10T11:15:49.057Z,8.80
2017-11-10T11:18:15.172Z,8.90
2017-11-10T11:20:41.312Z,8.70
2017-11-10T11:23:07.431Z,8.80
2017-11-10T11:25:33.602Z,8.90
2017-11-10T11:27:59.816Z,9.00
2017-11-10T11:30:25.903Z,9.00
2017-11-10T11:32:51.978Z,8.80
2017-11-10T11:35:18.119Z,8.80
2017-11-10T11:37:44.725Z,8.80
2017-11-10T11:40:10.894Z,8.90
2017-11-10T11:42:37.048Z,8.80
2017-11-10T11:45:03.666Z,8.80
2017-11-10T11:47:29.814Z,8.80
2017-11-10T11:49:55.954Z,8.70
2017-11-10T11:52:22.063Z,8.60
2017-11-10T11:54:48.931Z,8.70
2017-11-10T11:57:15.074Z,8.80
2017-11-10T11:59:41.207Z,8.80
2017-11-10T12:02:07.327Z,8.60
2017-11-10T12:04:34.251Z,8.70
2017-11-10T12:07:00.388Z,8.70
2017-11-10T12:09:26.567Z,8.70
2017-11-10T12:11:53.675Z,8.60
2017-11-10T12:14:19.804Z,8.60
2017-11-10T12:16:45.907Z,8.50
2017-11-10T12:19:13.239Z,8.30
2017-11-10T12:21:39.335Z,8.30
2017-11-10T12:24:05.439Z,8.30
2017-11-10T12:26:31.563Z,8.30
2017-11-10T12:28:57.685Z,8.20
2017-11-10T12:31:23.779Z,8.00
2017-11-10T12:33:49.925Z,8.00
2017-11-10T12:36:16.064Z,7.90
2017-11-10T12:38:42.320Z,7.80
2017-11-10T12:41:08.466Z,7.80
2017-11-10T12:43:34.628Z,7.80
2017-11-10T12:46:00.727Z,7.70
2017-11-10T12:48:26.944Z,7.80
2017-11-10T12:50:53.057Z,7.80
2017-11-10T12:53:19.197Z,7.80
2017-11-10T12:55:45.459Z,7.70
2017-11-10T12:58:12.344Z,7.70
2017-11-10T13:00:38.452Z,7.70
2017-11-10T13:03:05.368Z,7.70
2017-11-10T13:05:31.587Z,7.70
2017-11-10T13:07:58.115Z,7.70
2017-11-10T13:10:24.302Z,7.70
2017-11-10T13:12:50.428Z,7.70
2017-11-10T13:15:16.899Z,7.80
2017-11-10T13:17:43.110Z,7.80
2017-11-10T13:20:09.225Z,7.90
2017-11-10T13:22:35.368Z,7.90
2017-11-10T13:25:02.428Z,8.00
2017-11-10T13:27:28.554Z,8.00
2017-11-10T13:29:55.725Z,8.00
2017-11-10T13:32:21.868Z,8.00
2017-11-10T13:34:47.996Z,8.00
2017-11-10T13:37:14.137Z,8.00
2017-11-10T13:39:40.339Z,8.20
2017-11-10T13:42:06.491Z,8.10
2017-11-10T13:44:32.649Z,8.10
2017-11-10T13:46:59.315Z,8.00
2017-11-10T13:49:25.436Z,8.00
2017-11-10T13:51:51.555Z,8.00
2017-11-10T13:54:17.687Z,8.10
2017-11-10T13:56:43.936Z,8.00
2017-11-10T13:59:10.178Z,8.00
2017-11-10T14:01:36.516Z,8.10
2017-11-10T14:04:08.878Z,8.00
2017-11-10T14:06:35.057Z,8.00
2017-11-10T14:09:01.816Z,8.10
2017-11-10T14:11:28.075Z,8.10
2017-11-10T14:13:54.295Z,8.00
2017-11-10T14:16:23.593Z,8.00
2017-11-10T14:18:49.698Z,8.00
2017-11-10T14:21:16.013Z,8.10
2017-11-10T14:23:42.329Z,8.00
2017-11-10T14:26:08.443Z,8.00
2017-11-10T14:28:34.534Z,8.00
2017-11-10T14:31:00.696Z,8.00
2017-11-10T14:33:26.818Z,8.00
2017-11-10T14:35:52.925Z,8.10
2017-11-10T14:38:19.064Z,8.00
2017-11-10T14:40:45.170Z,8.00
2017-11-10T14:43:11.352Z,8.00
2017-11-10T14:45:38.036Z,7.90
2017-11-10T14:48:04.163Z,8.00
2017-11-10T14:50:30.535Z,8.00
2017-11-10T14:52:57.492Z,7.90
2017-11-10T14:55:23.595Z,7.90
2017-11-10T14:57:49.780Z,7.90
2017-11-10T15:00:16.901Z,8.00
2017-11-10T15:02:43.233Z,8.00
2017-11-10T15:05:10.119Z,7.80
2017-11-10T15:07:36.293Z,7.80
2017-11-10T15:10:02.423Z,7.80
2017-11-10T15:12:28.603Z,7.80
2017-11-10T15:14:54.745Z,7.80
2017-11-10T15:17:20.938Z,7.70
2017-11-10T15:19:47.783Z,7.80
2017-11-10T15:22:14.028Z,7.70
2017-11-10T15:24:40.433Z,7.80
2017-11-10T15:27:06.547Z,7.80
2017-11-10T15:29:32.673Z,7.80
2017-11-10T15:31:58.797Z,7.80
2017-11-10T15:34:25.295Z,7.80
2017-11-10T15:36:51.498Z,7.80
2017-11-10T15:39:17.616Z,7.80
2017-11-10T15:41:43.878Z,7.80
2017-11-10T15:44:10.046Z,7.70
2017-11-10T15:46:36.193Z,7.70
2017-11-10T15:49:02.314Z,7.70
2017-11-10T15:51:29.423Z,7.70
2017-11-10T15:53:56.272Z,7.60
2017-11-10T15:56:22.356Z,7.60
2017-11-10T15:58:48.540Z,7.60
2017-11-10T16:01:14.697Z,7.60
2017-11-10T16:03:41.590Z,7.60
2017-11-10T16:06:07.736Z,7.60
2017-11-10T16:08:33.936Z,7.60
2017-11-10T16:11:00.200Z,7.60
2017-11-10T16:13:26.351Z,7.70
2017-11-10T16:15:52.510Z,7.80
2017-11-10T16:18:18.790Z,7.80
2017-11-10T16:20:45.674Z,7.60
2017-11-10T16:23:12.036Z,7.60
2017-11-10T16:25:38.263Z,7.70
2017-11-10T16:28:04.424Z,7.60
2017-11-10T16:30:30.539Z,7.70
2017-11-10T16:32:56.758Z,7.70
2017-11-10T16:35:24.244Z,7.70
2017-11-10T16:37:50.323Z,7.70
2017-11-10T16:40:16.451Z,7.70
2017-11-10T16:42:42.557Z,7.80
2017-11-10T16:45:08.732Z,7.70
2017-11-10T16:47:34.833Z,7.70
2017-11-10T16:50:00.973Z,7.70
2017-11-10T16:52:27.063Z,7.70
2017-11-10T16:54:53.285Z,7.80
2017-11-10T16:57:19.592Z,7.80
2017-11-10T16:59:45.959Z,7.70
2017-11-10T17:02:12.161Z,7.70
2017-11-10T17:04:38.302Z,7.70
2017-11-10T17:07:04.485Z,7.80
2017-11-10T17:09:30.622Z,7.80
2017-11-10T17:11:56.883Z,7.80
2017-11-10T17:14:22.987Z,7.80
2017-11-10T17:16:49.142Z,7.70
2017-11-10T17:19:15.329Z,7.70
2017-11-10T17:21:41.456Z,7.60
2017-11-10T17:24:08.398Z,7.50
2017-11-10T17:26:34.587Z,7.40
2017-11-10T17:29:00.749Z,7.30
2017-11-10T17:31:26.910Z,7.30
2017-11-10T17:33:53.077Z,7.40
2017-11-10T17:36:19.746Z,7.30
2017-11-10T17:38:45.903Z,7.30
2017-11-10T17:41:12.079Z,7.30
2017-11-10T17:43:38.320Z,7.40
2017-11-10T17:46:04.528Z,7.40
2017-11-10T17:48:30.666Z,7.40
2017-11-10T17:50:56.894Z,7.40
2017-11-10T17:53:23.079Z,7.40
2017-11-10T17:55:49.293Z,7.40
2017-11-10T17:58:15.402Z,7.30
2017-11-10T18:00:41.555Z,7.30
2017-11-10T18:03:07.693Z,7.40
2017-11-10T18:05:33.815Z,7.40
2017-11-10T18:07:59.977Z,7.40
2017-11-10T18:10:26.102Z,7.40
2017-11-10T18:12:52.891Z,7.40
2017-11-10T18:15:19.078Z,7.40
2017-11-10T18:17:45.294Z,7.40
2017-11-10T18:20:11.497Z,7.50
2017-11-10T18:22:37.606Z,7.50
2017-11-10T18:25:03.733Z,7.40
2017-11-10T18:27:29.935Z,7.40
2017-11-10T18:29:56.065Z,7.30
2017-11-10T18:32:22.251Z,7.30
2017-11-10T18:34:48.439Z,7.40
2017-11-10T18:37:14.564Z,7.30
2017-11-10T18:39:40.735Z,7.30
2017-11-10T18:42:06.848Z,7.30
2017-11-10T18:44:32.959Z,7.30
2017-11-10T18:46:59.110Z,7.40
2017-11-10T18:49:27.100Z,7.40
2017-11-10T18:51:53.216Z,7.40
2017-11-10T18:54:19.356Z,7.30
2017-11-10T18:56:45.563Z,7.30
2017-11-10T18:59:24.907Z,7.20
2017-11-10T19:01:51.082Z,7.20
2017-11-10T19:04:17.211Z,7.00
2017-11-10T19:06:43.384Z,6.90
2017-11-10T19:09:09.496Z,7.00
2017-11-10T19:11:35.676Z,6.90
2017-11-10T19:14:01.827Z,6.80
2017-11-10T19:16:28.692Z,6.90
2017-11-10T19:18:55.526Z,6.90
2017-11-10T19:21:22.710Z,6.90
2017-11-10T19:23:49.585Z,6.90
2017-11-10T19:26:16.325Z,6.90
2017-11-10T19:28:43.207Z,7.00
2017-11-10T19:31:09.330Z,6.90
2017-11-10T19:33:35.441Z,7.10
2017-11-10T19:36:02.318Z,6.90
2017-11-10T19:38:28.423Z,6.90
2017-11-10T19:40:54.564Z,6.80
2017-11-10T19:43:20.725Z,6.80
2017-11-10T19:45:46.898Z,6.70
2017-11-10T19:48:13.008Z,6.70
2017-11-10T19:50:39.170Z,6.70
2017-11-10T19:53:05.274Z,6.70
2017-11-10T19:55:31.385Z,6.60
2017-11-10T19:57:57.581Z,6.60
2017-11-10T20:00:23.744Z,6.60
2017-11-10T20:02:49.908Z,6.50
2017-11-10T20:05:16.051Z,6.60
2017-11-10T20:07:42.161Z,6.50
2017-11-10T20:10:08.270Z,6.50
2017-11-10T20:12:34.431Z,6.50
2017-11-10T20:15:00.550Z,6.50
2017-11-10T20:17:26.682Z,6.50
2017-11-10T20:19:52.824Z,6.60
2017-11-10T20:22:18.936Z,6.60
2017-11-10T20:24:45.771Z,6.60
2017-11-10T20:27:11.931Z,6.60
2017-11-10T20:29:38.124Z,6.60
2017-11-10T20:32:04.260Z,6.50
2017-11-10T20:34:30.408Z,6.50
2017-11-10T20:36:56.501Z,6.50
2017-11-10T20:39:22.637Z,6.50
2017-11-10T20:41:48.807Z,6.50
2017-11-10T20:44:15.069Z,6.40
2017-11-10T20:46:41.239Z,6.30
2017-11-10T20:49:08.112Z,6.30
2017-11-10T20:51:34.275Z,6.30
2017-11-10T20:54:00.378Z,6.30
2017-11-10T20:56:26.523Z,6.30
2017-11-10T20:58:52.659Z,6.40
2017-11-10T21:01:18.841Z,6.30
2017-11-10T21:04:09.115Z,6.30
2017-11-10T21:06:35.407Z,6.30
2017-11-10T21:09:01.499Z,6.20
2017-11-10T21:11:28.242Z,6.20
2017-11-10T21:13:54.479Z,6.10
2017-11-10T21:16:20.645Z,6.10
2017-11-10T21:18:47.286Z,6.10
2017-11-10T21:21:13.467Z,6.10
2017-11-10T21:23:39.643Z,6.10
2017-11-10T21:26:05.803Z,6.10
2017-11-10T21:28:31.979Z,6.20
2017-11-10T21:30:58.110Z,6.20
2017-11-10T21:33:24.256Z,6.20
2017-11-10T21:35:50.514Z,6.30
2017-11-10T21:38:16.820Z,6.30
2017-11-10T21:40:42.973Z,6.40
2017-11-10T21:43:09.147Z,6.40
2017-11-10T21:45:35.357Z,6.40
2017-11-10T21:48:01.644Z,6.40
2017-11-10T21:50:27.775Z,6.40
2017-11-10T21:52:53.912Z,6.40
2017-11-10T21:55:20.023Z,6.40
2017-11-10T21:57:46.346Z,6.40
2017-11-10T22:00:12.630Z,6.40
2017-11-10T22:02:39.464Z,6.40
2017-11-10T22:05:05.618Z,6.30
2017-11-10T22:07:31.735Z,6.40
2017-11-10T22:09:58.212Z,6.40
2017-11-10T22:12:24.339Z,6.40
2017-11-10T22:14:50.483Z,6.50
2017-11-10T22:17:16.733Z,6.40
2017-11-10T22:19:43.361Z,6.40
2017-11-10T22:22:09.577Z,6.30
2017-11-10T22:24:35.757Z,6.40
2017-11-10T22:27:01.904Z,6.40
2017-11-10T22:29:28.078Z,6.30
2017-11-10T22:31:54.246Z,6.30
2017-11-10T22:34:20.373Z,6.40
2017-11-10T22:36:46.507Z,6.40
2017-11-10T22:39:13.342Z,6.30
2017-11-10T22:41:39.486Z,6.30
2017-11-10T22:44:06.365Z,6.20
2017-11-10T22:46:33.372Z,6.20
2017-11-10T22:48:59.705Z,6.20
2017-11-10T22:51:25.819Z,6.20
2017-11-10T22:53:51.938Z,6.20
2017-11-10T22:56:18.438Z,6.20
2017-11-10T22:58:44.797Z,6.10
2017-11-10T23:01:11.159Z,6.10
2017-11-10T23:03:38.383Z,6.10
2017-11-10T23:06:04.516Z,6.10
2017-11-10T23:11:29.303Z,6.00
2017-11-10T23:13:56.247Z,6.00
2017-11-10T23:16:23.224Z,6.00
2017-11-10T23:18:49.462Z,5.90
2017-11-10T23:21:15.650Z,6.00
2017-11-10T23:23:41.778Z,5.90
2017-11-10T23:26:07.950Z,6.00
2017-11-10T23:28:34.353Z,6.00
2017-11-10T23:31:00.607Z,6.00
2017-11-10T23:33:26.794Z,6.00
2017-11-10T23:35:53.790Z,6.10
2017-11-10T23:38:19.954Z,6.10
2017-11-10T23:40:46.184Z,6.00
2017-11-10T23:43:12.800Z,6.10
2017-11-10T23:45:39.010Z,6.10
2017-11-10T23:48:05.959Z,6.10
2017-11-10T23:50:32.154Z,6.10
2017-11-10T23:52:58.293Z,6.10
2017-11-10T23:55:24.441Z,6.10
2017-11-10T23:57:50.636Z,6.10
